Providencia, Colombia

3:35 PM COT on December 27, 2014 (GMT -0500)
Gustavo Rojas Pinilla | Change Station
CLOSE
Current Station
Airport
Location: San Andres,
Elevation: 20 ft
Nearby Weather Stations

Elev 20 ft 12.59 °N, 81.70 °W | Updated 35 minutes ago

Partly Cloudy
Partly Cloudy
84 °F
Feels Like 92 °F
N
10
Wind Variable Wind from East

Today
High -- | Low -- °F
--% Chance of Precip.
Yesterday
High -- | Low -- °F
Precip. -- in
6:46 AM 6:06 PM
Waxing Crescent, 40% visible
Pressure 29.86 in
Visibility 6.2 miles
Clouds Few 1800 ft
Heat Index 92 °F
Dew Point 75 °F
Humidity 74%
Rainfall 0.00 in
Snow Depth Not available.
UV 6 out of 12
Pollen Not available.
Air Quality Not available.
Flu Activity Not available.
METAR SKSP 272000Z 08009KT 9999 FEW018 29/24 A2986

More Conditions Fewer Conditions

Pressure 29.86 in
Visibility 6.2 miles
Clouds Few 1800 ft
Heat Index 92 °F
Dew Point 75 °F
Humidity 74%
Rainfall 0.00 in
Snow Depth Not available.
UV 6 out of 12
Pollen Not available.
Air Quality Not available.
Flu Activity Not available.
METAR SKSP 272000Z 08009KT 9999 FEW018 29/24 A2986

More Conditions Fewer Conditions

10-Day Weather Forecast

Almanac

Astronomy

Dec. 27, 2014 Rise Set
Actual Time
Civil Twilight
Nautical Twilight
Astronomical Twilight
Moon
Length of Visible Light
Length of Day
Tomorrow will be .
, % of the Moon is Illuminated

Today's Extremes

Country Highs Country Lows

Community

WunderPhotos

Upload Photos

1,781,048 photos uploaded!

WunderBlogs® & News

Nearby

Air Quality

  Air Quality AQ Index Pollutant
Not available.

Snow Depth

Station Depth Elevation

Earthquake Activity

City Distance Mag. Time & Date
Minimum magnitude displayed is 2.5.

Coastal Water Temperatures

Place Temperature

Nearby Weather Stations